createdAt,value
2023-03-26T00:02:29.847Z,0.60
2023-03-26T00:05:32.432Z,0.70
2023-03-26T00:08:36.028Z,0.70
2023-03-26T00:11:38.438Z,0.80
2023-03-26T00:14:41.479Z,0.77
2023-03-26T00:17:46.457Z,0.70
2023-03-26T00:20:48.894Z,0.80
2023-03-26T00:23:53.656Z,0.80
2023-03-26T00:26:55.997Z,0.60
2023-03-26T00:29:59.801Z,0.63
2023-03-26T00:33:02.799Z,0.60
2023-03-26T00:36:09.886Z,0.70
2023-03-26T00:39:14.161Z,0.68
2023-03-26T00:42:16.541Z,0.85
2023-03-26T00:45:21.412Z,0.80
2023-03-26T00:48:34.325Z,0.60
2023-03-26T00:51:44.460Z,0.60
2023-03-26T00:54:48.387Z,0.82
2023-03-26T00:57:50.882Z,0.70
2023-03-26T01:00:59.087Z,0.60
2023-03-26T01:04:27.562Z,0.60
2023-03-26T01:07:31.518Z,0.63
2023-03-26T01:10:38.732Z,0.70
2023-03-26T01:13:45.127Z,0.80
2023-03-26T01:16:52.316Z,0.60
2023-03-26T01:20:19.938Z,0.70
2023-03-26T01:23:24.050Z,0.73
2023-03-26T01:27:00.982Z,0.60
2023-03-26T01:30:11.076Z,0.60
2023-03-26T01:33:44.090Z,0.70
2023-03-26T01:37:13.377Z,0.60
2023-03-26T01:40:26.743Z,0.77
2023-03-26T01:43:51.323Z,0.50
2023-03-26T01:46:54.108Z,0.80
2023-03-26T01:49:56.564Z,0.70
2023-03-26T01:52:58.995Z,0.53
2023-03-26T01:56:16.656Z,0.63
2023-03-26T01:59:53.774Z,0.80
2023-03-26T02:03:20.029Z,0.77
2023-03-26T02:06:31.856Z,0.70
2023-03-26T02:09:40.134Z,0.80
2023-03-26T02:12:43.516Z,0.70
2023-03-26T02:16:03.567Z,0.60
2023-03-26T02:19:10.116Z,0.75
2023-03-26T02:22:15.711Z,0.60
2023-03-26T02:25:21.261Z,0.83
2023-03-26T02:28:25.860Z,0.70
2023-03-26T02:31:28.447Z,0.65
2023-03-26T02:34:31.379Z,0.60
2023-03-26T02:37:36.568Z,0.70
2023-03-26T02:40:47.927Z,0.50
2023-03-26T02:43:50.526Z,0.60
2023-03-26T02:46:55.918Z,0.70
2023-03-26T02:50:32.615Z,0.70
2023-03-26T02:53:53.848Z,0.80
2023-03-26T02:57:14.877Z,0.60
2023-03-26T03:00:35.839Z,0.60
2023-03-26T03:04:04.273Z,0.63
2023-03-26T03:07:14.393Z,0.70
2023-03-26T03:10:16.812Z,0.60
2023-03-26T03:13:51.790Z,0.80
2023-03-26T03:17:00.210Z,0.70
2023-03-26T03:20:02.590Z,0.90
2023-03-26T03:23:05.928Z,0.55
2023-03-26T03:26:14.405Z,0.50
2023-03-26T03:29:18.678Z,0.70
2023-03-26T03:32:22.778Z,0.60
2023-03-26T03:35:30.337Z,0.63
2023-03-26T03:38:34.592Z,0.70
2023-03-26T03:41:36.980Z,0.70
2023-03-26T03:44:42.119Z,0.77
2023-03-26T03:47:56.829Z,0.70
2023-03-26T03:51:06.684Z,0.50
2023-03-26T03:54:20.885Z,0.77
2023-03-26T03:57:23.846Z,0.60
2023-03-26T04:00:41.664Z,0.50
2023-03-26T04:04:04.618Z,0.80
2023-03-26T04:07:31.265Z,0.55
2023-03-26T04:10:39.575Z,0.60
2023-03-26T04:13:48.125Z,0.70
2023-03-26T04:17:09.438Z,0.70
2023-03-26T04:20:16.410Z,0.82
2023-03-26T04:23:23.329Z,0.75
2023-03-26T04:26:32.547Z,0.70
2023-03-26T04:29:44.672Z,0.80
2023-03-26T04:36:01.660Z,0.70
2023-03-26T04:39:06.784Z,0.50
2023-03-26T04:42:30.337Z,1.00
2023-03-26T04:45:45.913Z,0.80
2023-03-26T04:48:51.965Z,0.60
2023-03-26T04:51:54.463Z,0.77
2023-03-26T04:55:28.195Z,0.73
2023-03-26T04:58:39.952Z,0.85
2023-03-26T05:01:46.014Z,0.50
2023-03-26T05:04:50.821Z,0.70
2023-03-26T05:07:54.054Z,1.00
2023-03-26T05:10:57.199Z,0.88
2023-03-26T05:14:06.552Z,0.60
2023-03-26T05:17:14.947Z,1.33
2023-03-26T05:20:22.820Z,1.40
2023-03-26T05:23:25.267Z,0.90
2023-03-26T05:26:37.678Z,1.40
2023-03-26T05:29:40.084Z,0.70
2023-03-26T05:32:44.015Z,0.57
2023-03-26T05:35:49.565Z,0.87
2023-03-26T05:38:52.398Z,0.80
2023-03-26T05:42:17.580Z,0.60
2023-03-26T05:45:52.507Z,0.80
2023-03-26T05:49:00.889Z,0.70
2023-03-26T05:52:07.241Z,0.83
2023-03-26T05:55:29.892Z,0.70
2023-03-26T05:58:52.070Z,0.70
2023-03-26T06:02:13.229Z,0.70
2023-03-26T06:05:37.428Z,0.50
2023-03-26T06:09:01.708Z,0.53
2023-03-26T06:12:06.235Z,0.70
2023-03-26T06:15:09.611Z,0.50
2023-03-26T06:18:33.736Z,0.57
2023-03-26T06:21:54.789Z,0.50
2023-03-26T06:25:01.060Z,0.60
2023-03-26T06:28:30.451Z,0.52
2023-03-26T06:31:41.362Z,0.50
2023-03-26T06:34:56.124Z,0.50
2023-03-26T06:37:58.893Z,0.67
2023-03-26T06:41:06.255Z,0.70
2023-03-26T06:44:29.044Z,0.50
2023-03-26T06:47:51.649Z,0.57
2023-03-26T06:51:12.698Z,0.50
2023-03-26T06:54:33.365Z,0.50
2023-03-26T06:57:55.205Z,0.60
2023-03-26T07:01:16.264Z,0.50
2023-03-26T07:04:37.788Z,0.60
2023-03-26T07:08:00.683Z,0.52
2023-03-26T07:11:20.786Z,0.60
2023-03-26T07:15:00.403Z,0.60
2023-03-26T07:18:29.220Z,0.60
2023-03-26T07:21:32.304Z,0.52
2023-03-26T07:24:44.213Z,0.57
2023-03-26T07:28:27.725Z,0.43
2023-03-26T07:32:08.020Z,0.50
2023-03-26T07:35:44.746Z,0.60
2023-03-26T07:39:26.125Z,0.60
2023-03-26T07:43:27.624Z,0.50
2023-03-26T07:46:37.246Z,0.70
2023-03-26T07:49:51.825Z,0.60
2023-03-26T07:53:17.738Z,0.50
2023-03-26T07:56:49.449Z,0.60
2023-03-26T08:00:31.099Z,0.55
2023-03-26T08:03:57.624Z,0.30
2023-03-26T08:07:52.861Z,0.50
2023-03-26T08:11:53.708Z,0.55
2023-03-26T08:15:32.876Z,0.50
2023-03-26T08:18:35.710Z,0.40
2023-03-26T08:22:00.012Z,0.40
2023-03-26T08:25:29.730Z,0.70
2023-03-26T08:28:40.587Z,0.50
2023-03-26T08:31:44.615Z,0.45
2023-03-26T08:34:47.135Z,0.73
2023-03-26T08:37:49.728Z,0.40
2023-03-26T08:41:07.350Z,0.73
2023-03-26T08:44:09.991Z,0.52
2023-03-26T08:47:27.538Z,0.50
2023-03-26T08:50:56.760Z,0.50
2023-03-26T08:54:31.664Z,0.50
2023-03-26T08:57:39.864Z,0.40
2023-03-26T09:01:07.131Z,0.45
2023-03-26T09:04:21.340Z,0.45
2023-03-26T09:07:38.997Z,0.40
2023-03-26T09:11:03.902Z,0.60
2023-03-26T09:14:24.470Z,0.50
2023-03-26T09:17:58.125Z,0.50
2023-03-26T09:21:25.797Z,0.43
2023-03-26T09:24:51.527Z,0.50
2023-03-26T09:28:21.947Z,0.50
2023-03-26T09:31:49.173Z,0.70
2023-03-26T09:35:03.799Z,0.60
2023-03-26T09:38:37.065Z,0.60
2023-03-26T09:41:49.934Z,0.80
2023-03-26T09:45:21.507Z,0.40
2023-03-26T09:48:45.910Z,0.40
2023-03-26T09:51:56.024Z,0.40
2023-03-26T09:55:04.064Z,0.30
2023-03-26T09:58:27.088Z,0.38
2023-03-26T10:01:44.831Z,0.47
2023-03-26T10:05:10.285Z,0.40
2023-03-26T10:08:32.329Z,0.50
2023-03-26T10:11:41.189Z,0.40
2023-03-26T10:15:00.937Z,0.22
2023-03-26T10:18:27.488Z,0.37
2023-03-26T10:22:10.616Z,0.30
2023-03-26T10:25:41.067Z,0.47
2023-03-26T10:29:03.641Z,0.35
2023-03-26T10:32:21.942Z,0.40
2023-03-26T10:35:27.349Z,0.40
2023-03-26T10:39:02.104Z,0.40
2023-03-26T10:42:30.818Z,0.40
2023-03-26T10:46:14.472Z,0.35
2023-03-26T10:49:26.008Z,0.50
2023-03-26T10:53:14.722Z,0.50
2023-03-26T10:56:27.806Z,0.50
2023-03-26T10:59:30.718Z,0.40
2023-03-26T11:02:41.072Z,0.38
2023-03-26T11:05:51.251Z,0.30
2023-03-26T11:09:12.404Z,0.40
2023-03-26T11:12:26.305Z,0.40
2023-03-26T11:15:46.868Z,0.30
2023-03-26T11:19:00.011Z,0.40
2023-03-26T11:22:27.583Z,0.35
2023-03-26T11:26:07.126Z,0.40
2023-03-26T11:29:32.145Z,0.40
2023-03-26T11:32:52.092Z,0.45
2023-03-26T11:35:58.074Z,0.40
2023-03-26T11:39:01.796Z,0.30
2023-03-26T11:42:11.194Z,0.37
2023-03-26T11:45:24.308Z,0.47
2023-03-26T11:48:34.206Z,0.50
2023-03-26T11:51:38.457Z,0.45
2023-03-26T11:54:40.863Z,0.40
2023-03-26T11:57:50.515Z,0.30
2023-03-26T12:00:54.361Z,0.30
2023-03-26T12:04:13.640Z,0.30
2023-03-26T12:07:21.139Z,0.55
2023-03-26T12:10:25.001Z,0.35
2023-03-26T12:13:42.006Z,0.30
2023-03-26T12:17:02.661Z,0.50
2023-03-26T12:20:25.082Z,0.43
2023-03-26T12:24:05.208Z,0.32
2023-03-26T12:27:50.928Z,0.22
2023-03-26T12:31:01.497Z,0.37
2023-03-26T12:34:07.782Z,0.40
2023-03-26T12:37:34.422Z,0.30
2023-03-26T12:40:39.366Z,0.30
2023-03-26T12:44:56.465Z,0.43
2023-03-26T12:47:58.585Z,0.40
2023-03-26T12:51:06.494Z,0.40
2023-03-26T12:54:23.770Z,0.30
2023-03-26T12:57:39.123Z,0.40
2023-03-26T13:01:20.045Z,0.38
2023-03-26T13:04:34.542Z,0.30
2023-03-26T13:08:01.900Z,0.40
2023-03-26T13:11:18.970Z,0.25
2023-03-26T13:14:21.664Z,0.40
2023-03-26T13:18:04.448Z,0.35
2023-03-26T13:21:31.872Z,0.40
2023-03-26T13:24:46.724Z,0.40
2023-03-26T13:28:10.959Z,0.22
2023-03-26T13:31:24.854Z,0.30
2023-03-26T13:34:50.458Z,0.30
2023-03-26T13:38:06.386Z,0.40
2023-03-26T13:41:45.820Z,0.20
2023-03-26T13:45:04.835Z,0.35
2023-03-26T13:48:16.909Z,0.32
2023-03-26T13:51:31.956Z,0.30
2023-03-26T13:54:47.235Z,0.30
2023-03-26T13:58:02.182Z,0.30
2023-03-26T14:01:11.126Z,0.30
2023-03-26T14:04:21.907Z,0.28
2023-03-26T14:07:28.310Z,0.30
2023-03-26T14:10:37.477Z,0.37
2023-03-26T14:13:52.057Z,0.37
2023-03-26T14:16:58.541Z,0.30
2023-03-26T14:20:24.158Z,0.35
2023-03-26T14:23:48.432Z,0.30
2023-03-26T14:27:08.961Z,0.60
2023-03-26T14:30:17.830Z,0.40
2023-03-26T14:33:45.000Z,0.38
2023-03-26T14:36:53.043Z,0.50
2023-03-26T14:40:16.883Z,0.40
2023-03-26T14:43:48.180Z,0.33
2023-03-26T14:46:53.390Z,0.27
2023-03-26T14:50:13.986Z,0.28
2023-03-26T14:53:25.769Z,0.40
2023-03-26T14:56:44.670Z,0.40
2023-03-26T15:00:05.983Z,0.40
2023-03-26T15:03:11.068Z,0.30
2023-03-26T15:06:25.338Z,0.40
2023-03-26T15:09:49.696Z,0.30
2023-03-26T15:13:16.504Z,0.38
2023-03-26T15:16:21.706Z,0.30
2023-03-26T15:19:36.773Z,0.40
2023-03-26T15:23:10.257Z,0.30
2023-03-26T15:26:37.125Z,0.35
2023-03-26T15:29:57.817Z,0.40
2023-03-26T15:33:36.582Z,0.40
2023-03-26T15:37:05.650Z,0.30
2023-03-26T15:40:26.105Z,0.30
2023-03-26T15:44:23.452Z,0.20
2023-03-26T15:47:49.082Z,0.25
2023-03-26T15:51:15.505Z,0.30
2023-03-26T15:54:54.114Z,0.40
2023-03-26T15:58:04.841Z,0.30
2023-03-26T16:01:37.273Z,0.28
2023-03-26T16:05:03.344Z,0.40
2023-03-26T16:08:18.962Z,0.40
2023-03-26T16:11:42.918Z,0.47
2023-03-26T16:14:48.116Z,0.30
2023-03-26T16:18:19.180Z,0.30
2023-03-26T16:21:36.779Z,0.20
2023-03-26T16:24:46.683Z,0.20
2023-03-26T16:28:06.506Z,0.30
2023-03-26T16:31:37.336Z,0.40
2023-03-26T16:34:48.256Z,0.90
2023-03-26T16:38:05.833Z,1.00
2023-03-26T16:41:19.692Z,1.10
2023-03-26T16:44:33.032Z,1.07
2023-03-26T16:47:43.224Z,0.70
2023-03-26T16:51:07.276Z,0.30
2023-03-26T16:54:24.196Z,0.30
2023-03-26T16:57:28.837Z,0.30
2023-03-26T17:01:27.436Z,0.40
2023-03-26T17:04:30.875Z,0.60
2023-03-26T17:07:38.489Z,0.50
2023-03-26T17:10:58.556Z,0.47
2023-03-26T17:14:16.162Z,0.40
2023-03-26T17:17:40.869Z,0.40
2023-03-26T17:21:08.875Z,0.50
2023-03-26T17:24:30.050Z,0.40
2023-03-26T17:28:29.462Z,0.40
2023-03-26T17:31:51.129Z,0.30
2023-03-26T17:35:02.317Z,0.30
2023-03-26T17:38:24.932Z,0.50
2023-03-26T17:41:55.418Z,0.50
2023-03-26T17:45:03.833Z,0.38
2023-03-26T17:48:21.847Z,0.40
2023-03-26T17:51:50.565Z,0.50
2023-03-26T17:54:55.861Z,0.50
2023-03-26T17:58:00.560Z,0.50
2023-03-26T18:01:07.565Z,0.50
2023-03-26T18:04:20.296Z,0.67
2023-03-26T18:07:26.104Z,0.30
2023-03-26T18:10:49.913Z,0.47
2023-03-26T18:14:29.090Z,0.40
2023-03-26T18:17:32.499Z,0.50
2023-03-26T18:20:37.202Z,0.53
2023-03-26T18:23:45.336Z,0.23
2023-03-26T18:26:54.254Z,0.80
2023-03-26T18:29:56.941Z,1.75
2023-03-26T18:33:13.755Z,1.10
2023-03-26T18:36:19.756Z,1.47
2023-03-26T18:39:22.317Z,0.90
2023-03-26T18:42:26.227Z,1.10
2023-03-26T18:45:34.049Z,1.08
2023-03-26T18:48:36.653Z,1.55
2023-03-26T18:51:50.168Z,1.17
2023-03-26T18:54:59.964Z,1.03
2023-03-26T18:58:19.370Z,1.00
2023-03-26T19:01:25.705Z,0.82
2023-03-26T19:04:31.381Z,0.90
2023-03-26T19:07:35.994Z,0.93
2023-03-26T19:10:38.783Z,0.50
2023-03-26T19:13:44.259Z,0.60
2023-03-26T19:16:50.801Z,0.40
2023-03-26T19:19:54.955Z,0.43
2023-03-26T19:23:00.341Z,0.63
2023-03-26T19:26:04.733Z,0.70
2023-03-26T19:29:07.448Z,0.40
2023-03-26T19:32:19.356Z,0.60
2023-03-26T19:35:23.487Z,0.52
2023-03-26T19:38:28.604Z,0.40
2023-03-26T19:41:35.258Z,0.50
2023-03-26T19:44:39.715Z,0.70
2023-03-26T19:51:06.538Z,0.55
2023-03-26T19:51:18.448Z,0.50
2023-03-26T19:54:15.888Z,0.33
2023-03-26T19:57:18.740Z,0.60
2023-03-26T20:00:21.959Z,0.57
2023-03-26T20:03:30.425Z,0.60
2023-03-26T20:06:43.644Z,0.50
2023-03-26T20:09:46.705Z,0.43
2023-03-26T20:12:54.844Z,0.50
2023-03-26T20:16:05.250Z,0.50
2023-03-26T20:19:08.864Z,0.47
2023-03-26T20:22:16.911Z,0.40
2023-03-26T20:25:26.098Z,0.50
2023-03-26T20:28:35.392Z,0.50
2023-03-26T20:31:45.956Z,0.40
2023-03-26T20:34:52.398Z,0.30
2023-03-26T20:37:54.864Z,0.55
2023-03-26T20:40:57.765Z,0.40
2023-03-26T20:44:00.511Z,0.40
2023-03-26T20:47:03.220Z,0.70
2023-03-26T20:50:06.490Z,0.40
2023-03-26T20:53:14.386Z,0.50
2023-03-26T20:56:19.108Z,0.50
2023-03-26T20:59:26.440Z,0.50
2023-03-26T21:02:29.346Z,0.60
2023-03-26T21:05:32.406Z,0.52
2023-03-26T21:08:34.977Z,0.65
2023-03-26T21:11:43.687Z,0.50
2023-03-26T21:14:46.740Z,0.50
2023-03-26T21:17:51.334Z,0.40
2023-03-26T21:21:14.113Z,0.40
2023-03-26T21:24:57.233Z,0.40
2023-03-26T21:28:17.357Z,0.40
2023-03-26T21:31:22.354Z,0.30
2023-03-26T21:34:25.086Z,0.45
2023-03-26T21:37:27.771Z,0.47
2023-03-26T21:40:30.806Z,0.47
2023-03-26T21:43:33.134Z,0.50
2023-03-26T21:46:36.183Z,0.40
2023-03-26T21:49:38.764Z,0.40
2023-03-26T21:52:47.269Z,0.30
2023-03-26T21:56:01.021Z,0.20
2023-03-26T21:59:18.512Z,0.40
2023-03-26T22:02:29.902Z,0.50
2023-03-26T22:05:55.673Z,0.50
2023-03-26T22:08:59.564Z,0.40
2023-03-26T22:12:02.131Z,0.40
2023-03-26T22:15:04.842Z,0.40
2023-03-26T22:18:07.429Z,0.40
2023-03-26T22:21:10.042Z,0.50
2023-03-26T22:24:12.413Z,0.50
2023-03-26T22:27:16.121Z,0.50
2023-03-26T22:30:20.707Z,0.43
2023-03-26T22:33:23.230Z,0.37
2023-03-26T22:36:25.673Z,0.60
2023-03-26T22:39:27.977Z,0.50
2023-03-26T22:42:30.354Z,0.68
2023-03-26T22:45:32.679Z,0.50
2023-03-26T22:48:35.051Z,0.70
2023-03-26T22:51:37.490Z,0.35
2023-03-26T22:54:39.869Z,0.50
2023-03-26T22:57:42.882Z,0.45
2023-03-26T23:00:46.201Z,0.50
2023-03-26T23:03:49.088Z,0.43
2023-03-26T23:06:51.531Z,0.35
2023-03-26T23:09:53.884Z,0.45
2023-03-26T23:12:56.436Z,0.50
2023-03-26T23:15:59.455Z,0.40
2023-03-26T23:19:01.831Z,0.50
2023-03-26T23:22:04.195Z,0.50
2023-03-26T23:25:07.471Z,0.40
2023-03-26T23:28:10.300Z,0.35
2023-03-26T23:31:13.207Z,0.47
2023-03-26T23:34:17.087Z,0.50
2023-03-26T23:37:23.193Z,0.50
2023-03-26T23:40:25.799Z,0.40
2023-03-26T23:43:28.772Z,0.30
2023-03-26T23:46:33.940Z,0.50
2023-03-26T23:49:39.234Z,0.40
2023-03-26T23:52:41.653Z,0.57
2023-03-26T23:55:48.229Z,0.50
2023-03-26T23:58:50.602Z,0.60
